Macklin, Canada
Current Conditions -  °F | °C
As of 3:45 PM on Thursday 18 Dec 2014 (Local Time) from CYKY Reporting Station
Broken Clouds Broken Clouds  
Wind Chill: -15°   Ceiling: 26000
Heat Index: -10°   Visibility: 8mi
Dew Point: -12°   Wind: 6mph
Humidity: 86%   Direction: 310°NW
Pressure: 29.85"   Gusts: NA
Location:  52.33°N, 109.95°W
Report Text: CYKY 182145Z 31005KT 8SM SCT003 BKN260 M10/M12 A2985 RMK SC4CI3 BR SLP155
Loading
Personal Weather Stations






























Interactive Weather Map New forecast layout! Learn more

10-Day Weather Forecast

Advertisements
Track Severe Weather on mobile